createdAt,value
2023-04-24T00:00:41.771Z,4.40
2023-04-24T00:03:29.010Z,4.28
2023-04-24T00:06:14.684Z,3.33
2023-04-24T00:09:01.453Z,2.78
2023-04-24T00:11:46.959Z,2.13
2023-04-24T00:14:32.820Z,1.73
2023-04-24T00:17:20.993Z,1.90
2023-04-24T00:20:07.850Z,2.20
2023-04-24T00:22:53.013Z,1.95
2023-04-24T00:25:38.317Z,2.22
2023-04-24T00:28:23.829Z,2.67
2023-04-24T00:31:09.472Z,2.85
2023-04-24T00:33:55.185Z,4.07
2023-04-24T00:36:41.260Z,2.53
2023-04-24T00:39:26.992Z,2.35
2023-04-24T00:42:12.727Z,2.35
2023-04-24T00:44:58.672Z,1.85
2023-04-24T00:47:43.996Z,2.08
2023-04-24T00:50:30.238Z,1.80
2023-04-24T00:53:15.614Z,2.03
2023-04-24T00:56:01.362Z,3.50
2023-04-24T00:58:46.796Z,2.50
2023-04-24T01:01:33.796Z,3.40
2023-04-24T01:04:19.410Z,2.53
2023-04-24T01:07:10.775Z,2.45
2023-04-24T01:09:56.101Z,2.20
2023-04-24T01:12:42.045Z,2.75
2023-04-24T01:15:27.808Z,3.95
2023-04-24T01:18:13.461Z,3.90
2023-04-24T01:21:00.037Z,3.70
2023-04-24T01:23:48.351Z,3.38
2023-04-24T01:26:34.629Z,3.22
2023-04-24T01:29:20.499Z,2.90
2023-04-24T01:32:06.756Z,2.10
2023-04-24T01:34:52.788Z,2.17
2023-04-24T01:37:38.483Z,1.88
2023-04-24T01:40:23.721Z,1.75
2023-04-24T01:43:09.388Z,1.75
2023-04-24T01:45:54.696Z,1.92
2023-04-24T01:48:40.722Z,2.25
2023-04-24T01:51:26.638Z,3.13
2023-04-24T01:54:12.295Z,1.48
2023-04-24T01:56:57.587Z,1.75
2023-04-24T01:59:43.369Z,2.25
2023-04-24T02:02:29.835Z,1.33
2023-04-24T02:05:16.233Z,1.50
2023-04-24T02:08:01.861Z,1.23
2023-04-24T02:10:47.799Z,1.40
2023-04-24T02:13:33.353Z,1.88
2023-04-24T02:16:20.125Z,2.13
2023-04-24T02:19:05.775Z,1.45
2023-04-24T02:21:51.365Z,4.70
2023-04-24T02:24:36.460Z,1.65
2023-04-24T02:27:22.024Z,1.48
2023-04-24T02:30:08.605Z,3.08
2023-04-24T02:32:54.587Z,2.35
2023-04-24T02:35:40.277Z,1.33
2023-04-24T02:38:25.466Z,1.65
2023-04-24T02:41:10.991Z,2.95
2023-04-24T02:43:56.222Z,1.42
2023-04-24T02:46:42.910Z,2.40
2023-04-24T02:49:28.299Z,2.63
2023-04-24T02:52:14.218Z,1.92
2023-04-24T02:54:59.768Z,2.00
2023-04-24T02:57:45.156Z,1.27
2023-04-24T03:00:30.864Z,1.02
2023-04-24T03:03:16.741Z,2.40
2023-04-24T03:06:02.571Z,1.35
2023-04-24T03:08:48.153Z,1.35
2023-04-24T03:11:33.629Z,1.23
2023-04-24T03:14:19.560Z,1.10
2023-04-24T03:17:05.384Z,1.30
2023-04-24T03:19:50.620Z,1.98
2023-04-24T03:22:37.456Z,1.10
2023-04-24T03:25:26.689Z,0.90
2023-04-24T03:28:12.015Z,1.00
2023-04-24T03:31:17.801Z,2.65
2023-04-24T03:34:03.390Z,0.90
2023-04-24T03:36:48.708Z,1.10
2023-04-24T03:39:34.082Z,0.80
2023-04-24T03:42:19.620Z,1.42
2023-04-24T03:45:10.814Z,1.20
2023-04-24T03:47:59.311Z,1.40
2023-04-24T03:50:45.407Z,1.33
2023-04-24T03:53:31.851Z,1.48
2023-04-24T03:56:18.315Z,1.30
2023-04-24T03:59:03.672Z,1.85
2023-04-24T04:01:49.684Z,1.90
2023-04-24T04:04:36.048Z,1.52
2023-04-24T04:07:21.556Z,0.90
2023-04-24T04:10:08.561Z,1.25
2023-04-24T04:12:55.799Z,1.00
2023-04-24T04:15:41.673Z,1.13
2023-04-24T04:18:27.475Z,1.10
2023-04-24T04:21:13.071Z,0.90
2023-04-24T04:23:58.664Z,1.10
2023-04-24T04:26:53.090Z,1.17
2023-04-24T04:29:43.820Z,1.55
2023-04-24T04:32:34.702Z,1.30
2023-04-24T04:35:23.116Z,0.90
2023-04-24T04:38:11.791Z,1.08
2023-04-24T04:41:04.641Z,1.45
2023-04-24T04:43:52.470Z,1.30
2023-04-24T04:46:39.442Z,1.17
2023-04-24T04:49:31.898Z,0.98
2023-04-24T04:52:18.262Z,1.58
2023-04-24T04:55:06.552Z,1.70
2023-04-24T04:58:11.753Z,1.20
2023-04-24T05:00:58.401Z,1.00
2023-04-24T05:03:51.556Z,1.98
2023-04-24T05:06:37.608Z,1.20
2023-04-24T05:09:24.525Z,1.38
2023-04-24T05:12:13.972Z,1.00
2023-04-24T05:17:52.336Z,2.40
2023-04-24T05:20:37.752Z,3.15
2023-04-24T05:23:23.233Z,3.55
2023-04-24T05:26:11.639Z,5.15
2023-04-24T05:28:57.353Z,3.75
2023-04-24T05:31:43.313Z,4.97
2023-04-24T05:34:29.051Z,9.98
2023-04-24T05:37:16.244Z,8.70
2023-04-24T05:40:01.762Z,12.30
2023-04-24T05:42:47.372Z,17.98
2023-04-24T05:45:32.820Z,15.65
2023-04-24T05:48:18.132Z,16.17
2023-04-24T05:51:03.818Z,21.35
2023-04-24T05:53:49.163Z,18.35
2023-04-24T05:56:34.596Z,21.98
2023-04-24T05:59:22.697Z,22.60
2023-04-24T06:02:08.681Z,20.58
2023-04-24T06:04:54.196Z,24.95
2023-04-24T06:07:39.546Z,26.98
2023-04-24T06:10:26.535Z,23.58
2023-04-24T06:13:13.096Z,24.30
2023-04-24T06:16:03.980Z,24.88
2023-04-24T06:18:53.476Z,23.02
2023-04-24T06:21:39.425Z,20.65
2023-04-24T06:24:29.000Z,19.73
2023-04-24T06:27:15.720Z,19.70
2023-04-24T06:30:01.255Z,20.98
2023-04-24T06:32:46.660Z,18.85
2023-04-24T06:35:32.179Z,16.27
2023-04-24T06:38:17.771Z,16.90
2023-04-24T06:41:04.257Z,19.35
2023-04-24T06:43:49.744Z,18.38
2023-04-24T06:46:35.181Z,19.25
2023-04-24T06:49:21.808Z,21.20
2023-04-24T06:52:07.535Z,22.38
2023-04-24T06:54:52.837Z,24.08
2023-04-24T06:57:38.706Z,22.13
2023-04-24T07:00:25.306Z,20.33
2023-04-24T07:03:11.144Z,17.55
2023-04-24T07:05:56.806Z,19.92
2023-04-24T07:08:42.929Z,17.70
2023-04-24T07:11:30.149Z,21.15
2023-04-24T07:14:16.202Z,17.52
2023-04-24T07:17:03.023Z,15.45
2023-04-24T07:19:48.206Z,13.25
2023-04-24T07:22:33.710Z,17.83
2023-04-24T07:25:19.117Z,21.02
2023-04-24T07:28:05.489Z,19.65
2023-04-24T07:30:50.954Z,20.75
2023-04-24T07:33:37.419Z,23.52
2023-04-24T07:36:22.826Z,18.23
2023-04-24T07:39:09.178Z,19.23
2023-04-24T07:41:54.597Z,16.77
2023-04-24T07:44:40.082Z,19.40
2023-04-24T07:47:25.765Z,20.90
2023-04-24T07:50:11.429Z,13.75
2023-04-24T07:52:56.798Z,16.55
2023-04-24T07:55:42.208Z,19.88
2023-04-24T07:58:27.480Z,18.00
2023-04-24T08:01:14.010Z,14.52
2023-04-24T08:03:59.464Z,14.68
2023-04-24T08:06:45.205Z,16.17
2023-04-24T08:09:30.693Z,15.30
2023-04-24T08:12:16.198Z,18.13
2023-04-24T08:15:01.780Z,16.63
2023-04-24T08:17:47.140Z,17.92
2023-04-24T08:20:32.868Z,15.30
2023-04-24T08:23:18.265Z,12.73
2023-04-24T08:26:04.168Z,11.40
2023-04-24T08:28:49.769Z,13.20
2023-04-24T08:31:36.273Z,7.50
2023-04-24T08:34:22.499Z,10.85
2023-04-24T08:37:07.598Z,8.85
2023-04-24T08:39:53.523Z,9.55
2023-04-24T08:42:40.200Z,11.13
2023-04-24T08:45:25.677Z,9.77
2023-04-24T08:48:19.795Z,11.60
2023-04-24T08:51:09.947Z,11.30
2023-04-24T08:53:56.301Z,10.80
2023-04-24T08:56:45.700Z,9.75
2023-04-24T08:59:32.355Z,11.30
2023-04-24T09:02:18.291Z,10.23
2023-04-24T09:05:04.660Z,12.60
2023-04-24T09:07:57.357Z,7.18
2023-04-24T09:10:42.841Z,11.27
2023-04-24T09:13:28.531Z,10.48
2023-04-24T09:16:15.781Z,10.63
2023-04-24T09:19:01.369Z,10.13
2023-04-24T09:21:47.720Z,11.65
2023-04-24T09:24:33.284Z,11.43
2023-04-24T09:27:19.896Z,13.65
2023-04-24T09:30:05.609Z,11.25
2023-04-24T09:33:10.569Z,7.97
2023-04-24T09:35:55.880Z,11.38
2023-04-24T09:38:41.118Z,7.95
2023-04-24T09:41:27.730Z,9.15
2023-04-24T09:44:19.245Z,8.65
2023-04-24T09:47:10.217Z,14.93
2023-04-24T09:49:59.643Z,4.15
2023-04-24T09:52:58.148Z,7.03
2023-04-24T09:55:50.577Z,5.15
2023-04-24T09:58:37.418Z,6.82
2023-04-24T10:01:33.051Z,7.57
2023-04-24T10:04:25.661Z,6.05
2023-04-24T10:09:56.573Z,5.25
2023-04-24T10:12:42.817Z,4.28
2023-04-24T10:15:28.467Z,6.32
2023-04-24T10:18:13.738Z,1.95
2023-04-24T10:21:01.401Z,2.70
2023-04-24T10:23:48.453Z,3.65
2023-04-24T10:26:34.914Z,4.45
2023-04-24T10:29:20.712Z,4.20
2023-04-24T10:32:08.672Z,3.10
2023-04-24T10:34:54.898Z,6.53
2023-04-24T10:37:44.864Z,6.57
2023-04-24T10:40:34.979Z,4.20
2023-04-24T10:43:20.437Z,4.47
2023-04-24T10:46:07.253Z,4.55
2023-04-24T10:48:57.328Z,4.18
2023-04-24T10:51:54.347Z,4.28
2023-04-24T10:54:46.394Z,5.05
2023-04-24T10:57:31.997Z,7.07
2023-04-24T11:00:22.432Z,8.35
2023-04-24T11:03:23.652Z,3.40
2023-04-24T11:06:09.907Z,4.35
2023-04-24T11:09:04.897Z,5.18
2023-04-24T11:11:50.774Z,4.57
2023-04-24T11:14:56.412Z,5.03
2023-04-24T11:17:43.808Z,2.90
2023-04-24T11:20:29.419Z,6.60
2023-04-24T11:23:15.463Z,4.65
2023-04-24T11:26:17.840Z,6.63
2023-04-24T11:29:09.510Z,6.25
2023-04-24T11:31:54.619Z,5.22
2023-04-24T11:34:40.343Z,5.90
2023-04-24T11:37:28.361Z,7.10
2023-04-24T11:40:16.495Z,6.03
2023-04-24T11:43:02.170Z,3.95
2023-04-24T11:45:50.847Z,4.85
2023-04-24T11:48:41.322Z,6.97
2023-04-24T11:51:31.349Z,6.00
2023-04-24T11:54:22.554Z,11.30
2023-04-24T11:57:08.290Z,7.03
2023-04-24T11:59:53.776Z,6.93
2023-04-24T12:02:40.167Z,8.70
2023-04-24T12:05:32.592Z,9.55
2023-04-24T12:11:19.007Z,9.15
2023-04-24T12:14:12.293Z,11.35
2023-04-24T12:16:58.201Z,9.77
2023-04-24T12:19:48.691Z,14.25
2023-04-24T12:22:56.285Z,8.02
2023-04-24T12:25:41.992Z,7.68
2023-04-24T12:28:39.641Z,7.78
2023-04-24T12:31:24.806Z,8.02
2023-04-24T12:34:21.199Z,12.00
2023-04-24T12:37:13.020Z,10.20
2023-04-24T12:40:08.616Z,10.10
2023-04-24T12:42:55.657Z,8.50
2023-04-24T12:45:42.188Z,7.22
2023-04-24T12:48:28.337Z,14.30
2023-04-24T12:51:13.940Z,16.00
2023-04-24T12:53:59.413Z,17.70
2023-04-24T12:56:44.866Z,9.98
2023-04-24T12:59:30.073Z,10.68
2023-04-24T13:02:18.685Z,7.63
2023-04-24T13:05:04.934Z,12.63
2023-04-24T13:07:50.252Z,10.88
2023-04-24T13:10:35.970Z,12.80
2023-04-24T13:13:21.483Z,14.15
2023-04-24T13:16:06.846Z,10.85
2023-04-24T13:18:52.237Z,11.57
2023-04-24T13:21:37.512Z,15.23
2023-04-24T13:24:26.904Z,13.27
2023-04-24T13:27:12.166Z,12.27
2023-04-24T13:29:57.441Z,7.93
2023-04-24T13:32:42.994Z,5.32
2023-04-24T13:35:28.346Z,7.18
2023-04-24T13:38:13.984Z,11.10
2023-04-24T13:40:59.347Z,8.15
2023-04-24T13:43:44.762Z,13.43
2023-04-24T13:46:31.059Z,13.60
2023-04-24T13:49:17.052Z,14.38
2023-04-24T13:52:04.012Z,11.50
2023-04-24T13:54:49.437Z,14.05
2023-04-24T13:57:34.990Z,9.73
2023-04-24T14:00:21.589Z,7.80
2023-04-24T14:03:07.366Z,6.63
2023-04-24T14:05:52.655Z,2.95
2023-04-24T14:08:38.430Z,4.95
2023-04-24T14:11:23.614Z,8.48
2023-04-24T14:14:09.374Z,7.93
2023-04-24T14:16:54.616Z,11.88
2023-04-24T14:19:40.002Z,12.00
2023-04-24T14:22:25.598Z,12.80
2023-04-24T14:25:11.555Z,8.77
2023-04-24T14:27:57.330Z,17.15
2023-04-24T14:30:44.417Z,13.35
2023-04-24T14:33:32.944Z,18.48
2023-04-24T14:36:18.592Z,15.25
2023-04-24T14:39:07.551Z,14.65
2023-04-24T14:41:53.191Z,13.15
2023-04-24T14:44:38.296Z,13.00
2023-04-24T14:47:23.802Z,13.18
2023-04-24T14:50:09.430Z,9.60
2023-04-24T14:52:58.267Z,18.10
2023-04-24T14:55:43.565Z,13.65
2023-04-24T14:58:29.200Z,12.23
2023-04-24T15:01:14.397Z,10.70
2023-04-24T15:03:59.797Z,10.98
2023-04-24T15:06:45.092Z,13.77
2023-04-24T15:09:32.635Z,13.77
2023-04-24T15:12:18.125Z,12.57
2023-04-24T15:15:03.846Z,8.43
2023-04-24T15:17:49.267Z,11.52
2023-04-24T15:20:37.205Z,12.05
2023-04-24T15:23:24.040Z,11.00
2023-04-24T15:26:09.601Z,11.35
2023-04-24T15:28:55.468Z,7.65
2023-04-24T15:31:41.263Z,11.23
2023-04-24T15:34:26.845Z,9.05
2023-04-24T15:37:12.548Z,9.32
2023-04-24T15:39:57.715Z,13.00
2023-04-24T15:42:43.860Z,9.20
2023-04-24T15:45:29.199Z,13.02
2023-04-24T15:48:14.618Z,9.82
2023-04-24T15:51:01.144Z,10.13
2023-04-24T15:53:47.077Z,11.23
2023-04-24T15:56:32.621Z,9.98
2023-04-24T15:59:18.909Z,13.35
2023-04-24T16:02:04.833Z,13.38
2023-04-24T16:04:51.337Z,9.50
2023-04-24T16:07:38.767Z,15.77
2023-04-24T16:10:24.052Z,13.02
2023-04-24T16:13:09.649Z,10.55
2023-04-24T16:15:55.711Z,16.38
2023-04-24T16:18:41.037Z,8.05
2023-04-24T16:21:26.905Z,9.88
2023-04-24T16:24:12.012Z,11.63
2023-04-24T16:26:57.812Z,12.30
2023-04-24T16:29:43.393Z,11.45
2023-04-24T16:32:29.100Z,13.63
2023-04-24T16:35:14.453Z,10.45
2023-04-24T16:37:59.858Z,12.00
2023-04-24T16:40:45.562Z,12.95
2023-04-24T16:43:30.997Z,14.20
2023-04-24T16:46:16.445Z,15.52
2023-04-24T16:49:01.981Z,13.57
2023-04-24T16:51:47.338Z,14.88
2023-04-24T16:54:35.981Z,13.20
2023-04-24T16:57:21.442Z,14.38
2023-04-24T17:00:07.934Z,13.95
2023-04-24T17:02:53.540Z,14.35
2023-04-24T17:05:39.314Z,16.33
2023-04-24T17:08:24.807Z,13.80
2023-04-24T17:11:10.382Z,16.00
2023-04-24T17:13:56.135Z,15.70
2023-04-24T17:16:41.989Z,13.82
2023-04-24T17:19:27.882Z,17.73
2023-04-24T17:22:13.237Z,7.95
2023-04-24T17:24:58.584Z,11.18
2023-04-24T17:27:44.882Z,10.57
2023-04-24T17:30:30.186Z,13.23
2023-04-24T17:33:15.725Z,14.77
2023-04-24T17:36:01.951Z,12.50
2023-04-24T17:38:47.440Z,7.10
2023-04-24T17:41:32.812Z,9.45
2023-04-24T17:44:18.213Z,6.13
2023-04-24T17:47:04.726Z,8.65
2023-04-24T17:49:50.331Z,8.52
2023-04-24T17:52:35.821Z,6.38
2023-04-24T17:55:21.369Z,8.35
2023-04-24T17:58:06.607Z,6.93
2023-04-24T18:00:51.994Z,8.75
2023-04-24T18:03:38.488Z,8.43
2023-04-24T18:06:23.920Z,7.45
2023-04-24T18:09:09.326Z,7.65
2023-04-24T18:11:57.091Z,6.28
2023-04-24T18:14:42.881Z,5.95
2023-04-24T18:17:28.147Z,6.72
2023-04-24T18:20:14.611Z,5.15
2023-04-24T18:23:02.251Z,11.02
2023-04-24T18:25:48.693Z,5.57
2023-04-24T18:28:34.783Z,7.25
2023-04-24T18:31:20.434Z,7.78
2023-04-24T18:34:06.209Z,7.05
2023-04-24T18:36:51.847Z,6.05
2023-04-24T18:39:36.970Z,9.30
2023-04-24T18:42:22.926Z,9.35
2023-04-24T18:45:09.797Z,6.38
2023-04-24T18:47:56.364Z,6.72
2023-04-24T18:50:41.830Z,7.43
2023-04-24T18:53:27.003Z,7.82
2023-04-24T18:56:13.029Z,7.00
2023-04-24T18:58:58.453Z,6.10
2023-04-24T19:01:44.017Z,10.73
2023-04-24T19:04:30.065Z,8.02
2023-04-24T19:07:15.458Z,7.53
2023-04-24T19:10:01.098Z,7.70
2023-04-24T19:12:46.438Z,6.10
2023-04-24T19:15:33.412Z,7.25
2023-04-24T19:18:18.877Z,9.48
2023-04-24T19:21:04.421Z,10.18
2023-04-24T19:23:52.699Z,8.18
2023-04-24T19:26:38.309Z,4.78
2023-04-24T19:29:23.586Z,5.70
2023-04-24T19:32:09.274Z,8.43
2023-04-24T19:34:54.644Z,7.60
2023-04-24T19:37:40.252Z,4.97
2023-04-24T19:40:25.886Z,9.00
2023-04-24T19:43:11.467Z,7.70
2023-04-24T19:45:57.922Z,11.48
2023-04-24T19:48:43.563Z,8.13
2023-04-24T19:51:29.033Z,6.60
2023-04-24T19:54:15.086Z,5.82
2023-04-24T19:57:00.625Z,7.68
2023-04-24T19:59:46.164Z,5.93
2023-04-24T20:02:32.226Z,7.13
2023-04-24T20:05:17.878Z,9.20
2023-04-24T20:08:03.662Z,6.57
2023-04-24T20:10:49.251Z,5.72
2023-04-24T20:13:34.789Z,6.90
2023-04-24T20:16:20.648Z,7.78
2023-04-24T20:19:06.139Z,7.03
2023-04-24T20:21:51.747Z,7.53
2023-04-24T20:24:38.254Z,8.60
2023-04-24T20:27:23.652Z,12.65
2023-04-24T20:30:13.172Z,8.18
2023-04-24T20:32:59.218Z,8.35
2023-04-24T20:35:44.717Z,6.90
2023-04-24T20:38:30.851Z,11.23
2023-04-24T20:41:16.309Z,7.60
2023-04-24T20:44:02.142Z,10.65
2023-04-24T20:46:47.892Z,10.43
2023-04-24T20:49:33.260Z,6.10
2023-04-24T20:52:18.916Z,6.38
2023-04-24T20:55:04.903Z,6.15
2023-04-24T20:57:50.704Z,7.15
2023-04-24T21:00:35.970Z,4.22
2023-04-24T21:03:21.277Z,10.57
2023-04-24T21:06:07.161Z,13.90
2023-04-24T21:08:52.592Z,14.95
2023-04-24T21:11:37.876Z,15.48
2023-04-24T21:14:23.807Z,15.48
2023-04-24T21:17:09.113Z,19.77
2023-04-24T21:19:56.437Z,15.70
2023-04-24T21:22:41.730Z,16.02
2023-04-24T21:25:27.924Z,17.08
2023-04-24T21:28:14.102Z,16.08
2023-04-24T21:30:59.515Z,21.67
2023-04-24T21:33:44.864Z,15.43
2023-04-24T21:36:32.317Z,21.10
2023-04-24T21:39:18.229Z,17.55
2023-04-24T21:42:03.628Z,12.05
2023-04-24T21:44:49.101Z,17.02
2023-04-24T21:47:36.005Z,18.55
2023-04-24T21:50:21.598Z,19.35
2023-04-24T21:53:07.210Z,28.20
2023-04-24T21:55:52.822Z,18.95
2023-04-24T21:58:38.706Z,15.73
2023-04-24T22:01:23.816Z,19.75
2023-04-24T22:04:09.468Z,12.13
2023-04-24T22:06:55.864Z,20.27
2023-04-24T22:09:41.420Z,14.98
2023-04-24T22:12:27.005Z,13.63
2023-04-24T22:15:12.390Z,16.70
2023-04-24T22:17:58.770Z,12.68
2023-04-24T22:20:46.399Z,12.88
2023-04-24T22:23:31.583Z,13.68
2023-04-24T22:26:17.015Z,14.77
2023-04-24T22:29:02.846Z,13.88
2023-04-24T22:31:47.928Z,21.42
2023-04-24T22:34:33.428Z,15.63
2023-04-24T22:37:18.951Z,17.30
2023-04-24T22:40:05.520Z,19.70
2023-04-24T22:42:51.682Z,16.10
2023-04-24T22:45:37.735Z,14.55
2023-04-24T22:48:24.533Z,12.68
2023-04-24T22:51:10.625Z,10.73
2023-04-24T22:53:56.490Z,17.10
2023-04-24T22:56:41.943Z,19.85
2023-04-24T22:59:27.504Z,14.45
2023-04-24T23:02:12.860Z,14.70
2023-04-24T23:04:58.532Z,19.35
2023-04-24T23:07:43.991Z,16.73
2023-04-24T23:10:29.876Z,15.55
2023-04-24T23:13:15.084Z,20.52
2023-04-24T23:16:00.638Z,16.55
2023-04-24T23:18:45.976Z,12.55
2023-04-24T23:21:33.201Z,14.00
2023-04-24T23:24:18.864Z,13.80
2023-04-24T23:27:04.723Z,17.70
2023-04-24T23:29:50.555Z,9.35
2023-04-24T23:32:35.825Z,15.55
2023-04-24T23:35:21.366Z,16.90
2023-04-24T23:38:07.028Z,12.02
2023-04-24T23:40:52.224Z,11.95
2023-04-24T23:43:37.747Z,12.57
2023-04-24T23:46:23.085Z,14.30
2023-04-24T23:49:09.149Z,16.88
2023-04-24T23:51:54.472Z,17.55
2023-04-24T23:54:39.810Z,15.55
2023-04-24T23:57:25.763Z,10.98
